Time;durP1;ratioP1;P1;durP2;ratioP2;P2;SDS_P1;SDS_P2;PMS_P1;PMS_P2;Temp;Humidity;BMP_temperature;BMP_pressure;BME280_temperature;BME280_humidity;BME280_pressure;Samples;Min_cycle;Max_cycle;Signal;HPM_P1;HPM_P2
2023/10/20 00:01:33;;;;;;;8.15;1.85;;;;;;;;;;5014621;28;20038;-41
2023/10/20 00:04:03;;;;;;;4.78;2.10;;;;;;;;;;5014866;28;20037;-40
2023/10/20 00:06:30;;;;;;;8.10;1.92;;;;;;;;;;5011241;28;20038;-40
2023/10/20 00:08:58;;;;;;;8.05;1.77;;;;;;;;;;5025595;28;20484;-41
2023/10/20 00:11:28;;;;;;;9.60;1.92;;;;;;;;;;5034507;28;20083;-46
2023/10/20 00:13:55;;;;;;;10.23;1.80;;;;;;;;;;5012616;28;20092;-40
2023/10/20 00:16:26;;;;;;;11.52;2.20;;;;;;;;;;5004039;28;20045;-40
2023/10/20 00:18:53;;;;;;;13.50;5.45;;;;;;;;;;5003184;28;20029;-41
2023/10/20 00:21:20;;;;;;;15.73;5.75;;;;;;;;;;5004932;28;20030;-40
2023/10/20 00:23:47;;;;;;;12.85;6.82;;;;;;;;;;5004574;28;20073;-40
2023/10/20 00:26:14;;;;;;;15.23;6.80;;;;;;;;;;5003145;28;20034;-40
2023/10/20 00:28:41;;;;;;;24.70;9.93;;;;;;;;;;4994956;28;20034;-40
2023/10/20 00:31:11;;;;;;;24.50;10.35;;;;;;;;;;5000093;28;20037;-40
2023/10/20 00:33:39;;;;;;;22.70;11.40;;;;;;;;;;4996034;28;20041;-41
2023/10/20 00:36:09;;;;;;;29.13;11.65;;;;;;;;;;4994871;28;20026;-42
2023/10/20 00:38:36;;;;;;;21.27;11.25;;;;;;;;;;4994684;28;20141;-39
2023/10/20 00:41:03;;;;;;;26.40;11.02;;;;;;;;;;5003460;28;20037;-41
2023/10/20 00:43:37;;;;;;;29.27;12.55;;;;;;;;;;5014053;28;20109;-40
2023/10/20 00:46:10;;;;;;;39.53;13.60;;;;;;;;;;5006864;28;20113;-40
2023/10/20 00:48:38;;;;;;;37.20;12.73;;;;;;;;;;5004697;28;20034;-40
2023/10/20 00:51:05;;;;;;;32.88;13.27;;;;;;;;;;5005405;28;20463;-39
2023/10/20 00:53:34;;;;;;;31.15;13.65;;;;;;;;;;4998287;28;20551;-41
2023/10/20 00:56:04;;;;;;;33.50;12.63;;;;;;;;;;4994396;28;20036;-39
2023/10/20 00:58:31;;;;;;;45.90;13.98;;;;;;;;;;4994452;28;20035;-42
2023/10/20 01:00:59;;;;;;;49.25;16.95;;;;;;;;;;4994358;28;20133;-42
2023/10/20 01:03:27;;;;;;;61.22;21.95;;;;;;;;;;4994294;28;20512;-41
2023/10/20 01:05:54;;;;;;;51.90;19.85;;;;;;;;;;4994288;28;20448;-41
2023/10/20 01:08:21;;;;;;;51.67;19.90;;;;;;;;;;4994278;28;20042;-41
2023/10/20 01:10:48;;;;;;;48.10;19.08;;;;;;;;;;4992758;28;20498;-40
2023/10/20 01:13:15;;;;;;;46.70;18.63;;;;;;;;;;4994110;28;20485;-40
2023/10/20 01:15:42;;;;;;;51.22;18.25;;;;;;;;;;4994132;28;20030;-40
2023/10/20 01:18:10;;;;;;;41.30;17.85;;;;;;;;;;4994070;28;20038;-41
2023/10/20 01:20:38;;;;;;;47.50;17.58;;;;;;;;;;4993968;28;20026;-40
2023/10/20 01:23:05;;;;;;;39.17;16.25;;;;;;;;;;4993824;28;20034;-39
2023/10/20 01:25:32;;;;;;;38.35;16.08;;;;;;;;;;4993900;28;20038;-39
2023/10/20 01:27:59;;;;;;;45.13;16.95;;;;;;;;;;4993906;28;20460;-40
2023/10/20 01:30:26;;;;;;;35.95;14.15;;;;;;;;;;4993732;28;20401;-40
2023/10/20 01:32:53;;;;;;;41.33;14.75;;;;;;;;;;5003743;28;20026;-40
2023/10/20 01:35:20;;;;;;;41.58;14.80;;;;;;;;;;4998413;28;20030;-40
2023/10/20 01:37:48;;;;;;;36.03;13.98;;;;;;;;;;5007002;28;20380;-40
2023/10/20 01:40:15;;;;;;;36.47;13.48;;;;;;;;;;5012346;28;20044;-43
2023/10/20 01:42:42;;;;;;;30.83;13.48;;;;;;;;;;5012580;28;20034;-41
2023/10/20 01:45:09;;;;;;;34.20;13.10;;;;;;;;;;5003970;28;20044;-40
2023/10/20 01:47:36;;;;;;;32.35;12.43;;;;;;;;;;5002759;28;20076;-41
2023/10/20 01:50:04;;;;;;;27.70;12.13;;;;;;;;;;5002256;28;20033;-39
2023/10/20 01:52:31;;;;;;;29.00;12.25;;;;;;;;;;5001465;28;20520;-39
2023/10/20 01:54:58;;;;;;;28.17;12.32;;;;;;;;;;5003273;28;20428;-42
2023/10/20 01:57:26;;;;;;;31.35;12.68;;;;;;;;;;5002624;28;20117;-40
2023/10/20 01:59:53;;;;;;;27.65;12.50;;;;;;;;;;5003287;28;20026;-39
2023/10/20 02:02:20;;;;;;;39.47;12.80;;;;;;;;;;5032308;28;20048;-40
2023/10/20 02:04:47;;;;;;;34.03;14.25;;;;;;;;;;5032446;28;20480;-40
2023/10/20 02:07:14;;;;;;;38.03;13.48;;;;;;;;;;5030897;28;20400;-40
2023/10/20 02:09:41;;;;;;;31.67;13.32;;;;;;;;;;5032187;28;20030;-42
2023/10/20 02:12:10;;;;;;;37.42;14.30;;;;;;;;;;5032121;28;20075;-40
2023/10/20 02:14:37;;;;;;;35.90;13.60;;;;;;;;;;5032081;28;20048;-42
2023/10/20 02:17:04;;;;;;;30.10;12.48;;;;;;;;;;5032039;28;20457;-40
2023/10/20 02:19:31;;;;;;;34.00;13.23;;;;;;;;;;5031966;28;20061;-42
2023/10/20 02:22:01;;;;;;;29.33;12.70;;;;;;;;;;5031435;28;20071;-40
2023/10/20 02:24:28;;;;;;;32.22;12.48;;;;;;;;;;5031889;28;20557;-40
2023/10/20 02:26:55;;;;;;;31.15;12.85;;;;;;;;;;5032068;28;20025;-39
2023/10/20 02:29:22;;;;;;;27.38;12.38;;;;;;;;;;5032040;28;20491;-40
2023/10/20 02:31:49;;;;;;;33.88;11.40;;;;;;;;;;5031804;28;20041;-40
2023/10/20 02:34:16;;;;;;;35.13;11.82;;;;;;;;;;5031902;28;20033;-40
2023/10/20 02:36:43;;;;;;;34.22;11.63;;;;;;;;;;5031661;28;20032;-40
2023/10/20 02:39:10;;;;;;;31.23;11.48;;;;;;;;;;5031912;28;20483;-40
2023/10/20 02:41:37;;;;;;;30.23;11.15;;;;;;;;;;5031717;28;20103;-39
2023/10/20 02:44:04;;;;;;;30.55;11.23;;;;;;;;;;5031718;28;20103;-39
2023/10/20 02:46:32;;;;;;;29.95;11.27;;;;;;;;;;5031853;28;20021;-40
2023/10/20 02:48:59;;;;;;;34.97;12.13;;;;;;;;;;5031458;28;20439;-40
2023/10/20 02:51:27;;;;;;;31.05;13.00;;;;;;;;;;5031498;28;20135;-40
2023/10/20 02:53:54;;;;;;;36.60;12.60;;;;;;;;;;5030329;28;20037;-40
2023/10/20 02:56:23;;;;;;;30.17;12.80;;;;;;;;;;5031542;28;20070;-40
2023/10/20 02:58:50;;;;;;;32.30;13.13;;;;;;;;;;5031707;28;20116;-39
2023/10/20 03:01:18;;;;;;;35.03;12.77;;;;;;;;;;5031475;28;20402;-40
2023/10/20 03:03:45;;;;;;;32.65;12.32;;;;;;;;;;5031677;28;20056;-40
2023/10/20 03:06:12;;;;;;;35.38;12.32;;;;;;;;;;5031626;28;20026;-40
2023/10/20 03:08:40;;;;;;;35.42;12.80;;;;;;;;;;5031592;28;20030;-40
2023/10/20 03:11:07;;;;;;;30.80;11.70;;;;;;;;;;5031421;28;20033;-39
2023/10/20 03:13:34;;;;;;;29.40;11.32;;;;;;;;;;5031516;28;20045;-39
2023/10/20 03:16:01;;;;;;;28.75;11.60;;;;;;;;;;5031553;28;20053;-41
2023/10/20 03:18:29;;;;;;;30.50;11.57;;;;;;;;;;5030101;28;20030;-40
2023/10/20 03:21:00;;;;;;;30.83;11.07;;;;;;;;;;5031480;28;20029;-39
2023/10/20 03:23:27;;;;;;;35.67;11.70;;;;;;;;;;5031338;28;20032;-39
2023/10/20 03:25:55;;;;;;;32.85;11.20;;;;;;;;;;5031468;28;20038;-40
2023/10/20 03:28:22;;;;;;;26.35;10.07;;;;;;;;;;5031474;28;20487;-40
2023/10/20 03:30:50;;;;;;;22.80;10.13;;;;;;;;;;5031307;28;20120;-40
2023/10/20 03:33:17;;;;;;;31.98;11.63;;;;;;;;;;5031266;28;20034;-40
2023/10/20 03:35:44;;;;;;;28.88;10.75;;;;;;;;;;5034116;28;20065;-39
2023/10/20 03:38:11;;;;;;;24.80;10.07;;;;;;;;;;5035314;28;20414;-40
2023/10/20 03:40:40;;;;;;;27.83;10.40;;;;;;;;;;5035233;28;20037;-39
2023/10/20 03:43:10;;;;;;;24.75;9.73;;;;;;;;;;5035037;28;20038;-39
2023/10/20 03:45:49;;;;;;;30.35;10.25;;;;;;;;;;5035015;28;20133;-39
2023/10/20 03:48:16;;;;;;;28.10;10.75;;;;;;;;;;5035082;28;20125;-40
2023/10/20 03:50:44;;;;;;;28.45;10.57;;;;;;;;;;5035045;28;20037;-40
2023/10/20 03:53:15;;;;;;;24.55;10.18;;;;;;;;;;5035182;28;20231;-40
2023/10/20 03:55:42;;;;;;;33.95;11.15;;;;;;;;;;5035003;28;20711;-40
2023/10/20 03:58:10;;;;;;;30.00;10.23;;;;;;;;;;5034987;28;20022;-40
2023/10/20 04:00:41;;;;;;;21.90;9.93;;;;;;;;;;5034860;28;20036;-40
2023/10/20 04:03:09;;;;;;;23.52;9.65;;;;;;;;;;5034778;28;20036;-40
2023/10/20 04:05:36;;;;;;;22.63;9.43;;;;;;;;;;5034875;28;20096;-40
2023/10/20 04:08:05;;;;;;;29.40;9.73;;;;;;;;;;5034837;28;20348;-40
2023/10/20 04:10:33;;;;;;;23.73;9.80;;;;;;;;;;5034668;28;20048;-41
2023/10/20 04:13:02;;;;;;;30.05;9.93;;;;;;;;;;5034596;28;20034;-39
2023/10/20 04:15:32;;;;;;;25.10;9.60;;;;;;;;;;5034632;28;20151;-39
2023/10/20 04:17:59;;;;;;;19.90;8.98;;;;;;;;;;5034603;28;20038;-40
2023/10/20 04:20:26;;;;;;;24.27;9.10;;;;;;;;;;5034599;28;20056;-40
2023/10/20 04:22:53;;;;;;;21.80;8.93;;;;;;;;;;5034404;28;20065;-40
2023/10/20 04:25:22;;;;;;;27.33;9.50;;;;;;;;;;5034420;28;20026;-41
2023/10/20 05:00:45;;;;;;;20.52;8.15;;;;;;;;;;5011775;28;20169;-40
2023/10/20 05:03:16;;;;;;;14.88;7.47;;;;;;;;;;5029177;28;20034;-40
2023/10/20 05:05:52;;;;;;;16.83;7.25;;;;;;;;;;5033698;28;20031;-40
2023/10/20 05:08:21;;;;;;;15.80;7.25;;;;;;;;;;5033654;28;20041;-40
2023/10/20 05:10:49;;;;;;;14.70;7.30;;;;;;;;;;5033479;28;20400;-40
2023/10/20 05:13:16;;;;;;;15.05;6.85;;;;;;;;;;5033438;28;20040;-42
2023/10/20 05:15:44;;;;;;;19.67;7.75;;;;;;;;;;5033808;28;20407;-40
2023/10/20 05:18:14;;;;;;;18.20;8.05;;;;;;;;;;5033585;28;20771;-40
2023/10/20 05:20:42;;;;;;;15.95;7.60;;;;;;;;;;5033406;28;20072;-40
2023/10/20 05:23:14;;;;;;;14.98;6.97;;;;;;;;;;5033248;28;20541;-41
2023/10/20 05:25:41;;;;;;;;;;;;;;;;;;5034067;28;20400;-40
2023/10/20 05:28:08;;;;;;;13.25;6.95;;;;;;;;;;5033394;28;19909;-40
2023/10/20 05:30:35;;;;;;;17.25;7.35;;;;;;;;;;5022503;28;20389;-40
2023/10/20 05:33:02;;;;;;;16.77;7.50;;;;;;;;;;5013421;28;20437;-40
2023/10/20 05:35:29;;;;;;;15.65;7.30;;;;;;;;;;5013328;28;20037;-40
2023/10/20 05:37:56;;;;;;;14.50;7.43;;;;;;;;;;5013364;28;20029;-40
2023/10/20 05:40:24;;;;;;;17.25;7.45;;;;;;;;;;5013362;28;20484;-39
2023/10/20 05:42:51;;;;;;;15.90;6.70;;;;;;;;;;5013168;28;20036;-40
2023/10/20 05:45:20;;;;;;;16.88;6.65;;;;;;;;;;5013080;28;20049;-40
2023/10/20 05:47:48;;;;;;;16.42;6.20;;;;;;;;;;5013023;28;20160;-40
2023/10/20 05:50:15;;;;;;;18.58;7.03;;;;;;;;;;5013051;28;20034;-40
2023/10/20 05:52:42;;;;;;;15.55;7.03;;;;;;;;;;5013067;28;20399;-40
2023/10/20 05:55:09;;;;;;;16.20;7.18;;;;;;;;;;5013006;28;20440;-40
2023/10/20 05:57:36;;;;;;;14.10;6.85;;;;;;;;;;5012181;28;20495;-40
2023/10/20 06:00:03;;;;;;;14.40;6.68;;;;;;;;;;5012906;28;20036;-40
2023/10/20 06:02:32;;;;;;;14.52;6.28;;;;;;;;;;4995315;28;20025;-39
2023/10/20 06:04:59;;;;;;;13.82;6.32;;;;;;;;;;4993267;28;20420;-42
2023/10/20 06:07:27;;;;;;;13.30;6.55;;;;;;;;;;4993217;28;20023;-39
2023/10/20 06:09:54;;;;;;;14.65;6.10;;;;;;;;;;4993243;28;20049;-40
2023/10/20 06:12:21;;;;;;;11.63;6.28;;;;;;;;;;4992940;28;20037;-40
2023/10/20 06:14:49;;;;;;;12.32;6.03;;;;;;;;;;4993140;28;20607;-39
2023/10/20 06:17:18;;;;;;;10.57;5.05;;;;;;;;;;4992991;28;20033;-39
2023/10/20 06:19:48;;;;;;;14.32;6.10;;;;;;;;;;4992980;28;20038;-39
2023/10/20 06:22:16;;;;;;;11.15;5.05;;;;;;;;;;4992890;28;20034;-39
2023/10/20 06:24:43;;;;;;;10.65;5.18;;;;;;;;;;4992945;28;20437;-40
2023/10/20 06:27:11;;;;;;;10.05;5.47;;;;;;;;;;4992974;28;20049;-40
2023/10/20 06:32:24;;;;;;;9.52;5.10;;;;;;;;;;4992588;28;20047;-39
2023/10/20 06:34:52;;;;;;;10.85;5.30;;;;;;;;;;4992767;28;20030;-40
2023/10/20 06:37:28;;;;;;;11.27;5.35;;;;;;;;;;4992689;28;20030;-39
2023/10/20 06:39:56;;;;;;;8.73;5.10;;;;;;;;;;4992609;28;20034;-40
2023/10/20 06:42:24;;;;;;;9.25;5.07;;;;;;;;;;4992520;28;20039;-40
2023/10/20 06:44:51;;;;;;;10.18;5.10;;;;;;;;;;4992438;28;20050;-39
2023/10/20 06:47:20;;;;;;;10.07;5.28;;;;;;;;;;4992513;28;20400;-40
2023/10/20 06:49:47;;;;;;;9.20;5.00;;;;;;;;;;4992438;28;20038;-40
2023/10/20 06:52:17;;;;;;;9.05;4.43;;;;;;;;;;4992336;28;20046;-40
2023/10/20 06:54:45;;;;;;;9.63;4.95;;;;;;;;;;4992424;28;20450;-42
2023/10/20 06:57:14;;;;;;;8.98;5.00;;;;;;;;;;4992359;28;20041;-40
2023/10/20 06:59:41;;;;;;;9.70;4.82;;;;;;;;;;4992593;28;20366;-40
2023/10/20 07:02:09;;;;;;;8.68;4.80;;;;;;;;;;4992334;28;20034;-40
2023/10/20 07:04:37;;;;;;;9.43;4.88;;;;;;;;;;4992309;28;20031;-39
2023/10/20 07:07:11;;;;;;;10.27;4.63;;;;;;;;;;4992278;28;20081;-40
2023/10/20 07:09:38;;;;;;;7.25;4.55;;;;;;;;;;4992031;28;20042;-40
2023/10/20 07:12:06;;;;;;;10.05;4.88;;;;;;;;;;4992042;28;20654;-40
2023/10/20 07:14:34;;;;;;;9.40;4.72;;;;;;;;;;4992222;28;20037;-39
2023/10/20 07:17:03;;;;;;;9.10;4.35;;;;;;;;;;4992252;28;20037;-40
2023/10/20 07:19:31;;;;;;;9.60;4.57;;;;;;;;;;4992186;28;20038;-39
2023/10/20 07:21:58;;;;;;;9.45;4.80;;;;;;;;;;4992144;28;20038;-40
2023/10/20 07:24:26;;;;;;;9.07;4.50;;;;;;;;;;4992105;28;20034;-40
2023/10/20 07:26:54;;;;;;;7.90;4.20;;;;;;;;;;4992389;28;20367;-40
2023/10/20 07:29:21;;;;;;;8.38;3.88;;;;;;;;;;4992125;28;20034;-39
2023/10/20 07:31:48;;;;;;;7.50;4.13;;;;;;;;;;4991913;28;20508;-40
2023/10/20 07:34:16;;;;;;;8.50;4.40;;;;;;;;;;4992109;28;20033;-40
2023/10/20 07:36:43;;;;;;;9.18;4.72;;;;;;;;;;4990743;28;20030;-39
2023/10/20 07:39:16;;;;;;;7.68;3.80;;;;;;;;;;4992016;28;20038;-40
2023/10/20 07:41:43;;;;;;;7.95;4.03;;;;;;;;;;4991835;28;20045;-39
2023/10/20 07:44:15;;;;;;;10.32;3.97;;;;;;;;;;4991763;28;20543;-40
2023/10/20 07:46:43;;;;;;;8.35;4.15;;;;;;;;;;4991915;28;20110;-40
2023/10/20 07:49:13;;;;;;;9.40;3.85;;;;;;;;;;4991994;28;20496;-40
2023/10/20 07:51:41;;;;;;;7.07;3.72;;;;;;;;;;4991873;28;20042;-39
2023/10/20 07:54:09;;;;;;;7.55;4.18;;;;;;;;;;4991913;28;20038;-40
2023/10/20 07:56:37;;;;;;;7.88;3.92;;;;;;;;;;4992004;28;20564;-39
2023/10/20 07:59:04;;;;;;;8.35;4.10;;;;;;;;;;4991922;28;20089;-40
2023/10/20 08:01:31;;;;;;;5.95;3.47;;;;;;;;;;4991657;28;20439;-40
2023/10/20 08:03:58;;;;;;;8.07;3.63;;;;;;;;;;4991824;28;20489;-40
2023/10/20 08:06:25;;;;;;;8.93;3.78;;;;;;;;;;4991888;28;20110;-40
2023/10/20 08:08:52;;;;;;;7.50;4.07;;;;;;;;;;4991826;28;20023;-40
2023/10/20 08:11:19;;;;;;;6.32;3.67;;;;;;;;;;4990343;28;20382;-40
2023/10/20 08:13:52;;;;;;;7.25;3.90;;;;;;;;;;4991679;28;20366;-40
2023/10/20 08:16:22;;;;;;;5.90;3.58;;;;;;;;;;4992297;28;20042;-39
2023/10/20 08:18:51;;;;;;;6.75;3.40;;;;;;;;;;5002231;28;20084;-40
2023/10/20 08:21:19;;;;;;;7.00;4.22;;;;;;;;;;5002741;28;20477;-40
2023/10/20 08:23:46;;;;;;;6.13;3.42;;;;;;;;;;5003349;28;20034;-40
2023/10/20 08:26:19;;;;;;;7.15;3.10;;;;;;;;;;5004844;28;20025;-39
2023/10/20 08:28:46;;;;;;;7.90;3.55;;;;;;;;;;5005500;28;20472;-40
2023/10/20 08:31:13;;;;;;;5.93;3.45;;;;;;;;;;5003616;28;20042;-41
2023/10/20 08:33:41;;;;;;;7.72;3.75;;;;;;;;;;5003788;28;20041;-40
2023/10/20 08:36:15;;;;;;;6.85;3.22;;;;;;;;;;5005151;28;20026;-40
2023/10/20 08:38:47;;;;;;;9.43;3.40;;;;;;;;;;5004818;28;20058;-39
2023/10/20 08:41:14;;;;;;;6.45;3.60;;;;;;;;;;5003406;28;20118;-39
2023/10/20 08:43:42;;;;;;;6.90;3.33;;;;;;;;;;5003470;28;20022;-40
2023/10/20 08:46:13;;;;;;;6.47;3.50;;;;;;;;;;5003042;28;20082;-40
2023/10/20 08:48:40;;;;;;;5.82;3.20;;;;;;;;;;5003782;28;20108;-41
2023/10/20 08:51:08;;;;;;;7.47;3.33;;;;;;;;;;5004706;28;20122;-40
2023/10/20 08:53:39;;;;;;;7.22;3.65;;;;;;;;;;5003388;28;20045;-39
2023/10/20 08:56:07;;;;;;;5.03;3.30;;;;;;;;;;5002934;28;20030;-39
2023/10/20 08:58:35;;;;;;;6.47;3.25;;;;;;;;;;5002404;28;20042;-40
2023/10/20 09:01:02;;;;;;;5.53;3.20;;;;;;;;;;5003172;28;20030;-40
2023/10/20 09:03:38;;;;;;;5.45;2.97;;;;;;;;;;5003166;28;20041;-41
2023/10/20 09:06:06;;;;;;;6.05;3.40;;;;;;;;;;5002411;28;20140;-39
2023/10/20 09:08:33;;;;;;;5.70;3.10;;;;;;;;;;5004529;28;20041;-40
2023/10/20 09:11:01;;;;;;;6.13;2.92;;;;;;;;;;5003533;28;20031;-40
2023/10/20 09:13:39;;;;;;;6.63;3.15;;;;;;;;;;5002301;28;20552;-40
2023/10/20 09:16:08;;;;;;;6.82;3.25;;;;;;;;;;4997421;28;20395;-39
2023/10/20 09:18:44;;;;;;;5.35;3.20;;;;;;;;;;4993731;28;20031;-39
2023/10/20 09:21:13;;;;;;;6.45;3.00;;;;;;;;;;4993997;28;20089;-40
2023/10/20 09:23:40;;;;;;;5.53;3.33;;;;;;;;;;4993898;28;20117;-39
2023/10/20 09:26:08;;;;;;;6.28;3.17;;;;;;;;;;4993787;28;20030;-39
2023/10/20 09:28:36;;;;;;;5.40;2.78;;;;;;;;;;4998645;28;20031;-40
2023/10/20 09:31:03;;;;;;;6.60;3.08;;;;;;;;;;5002703;28;20030;-39
2023/10/20 09:33:30;;;;;;;9.48;3.20;;;;;;;;;;5003322;28;20493;-41
2023/10/20 09:35:57;;;;;;;5.43;2.70;;;;;;;;;;5001902;28;20030;-42
2023/10/20 09:38:27;;;;;;;7.97;2.95;;;;;;;;;;5001954;28;20333;-40
2023/10/20 09:41:03;;;;;;;4.90;2.83;;;;;;;;;;4998235;28;20034;-39
2023/10/20 09:43:35;;;;;;;12.82;2.63;;;;;;;;;;4993329;28;20042;-41
2023/10/20 09:46:15;;;;;;;7.85;2.83;;;;;;;;;;4993585;28;20141;-41
2023/10/20 09:48:42;;;;;;;8.15;2.58;;;;;;;;;;4992377;28;20030;-41
2023/10/20 09:51:10;;;;;;;12.27;2.70;;;;;;;;;;4993398;28;20437;-40
2023/10/20 09:53:38;;;;;;;11.02;2.50;;;;;;;;;;4993468;28;20089;-40
2023/10/20 09:56:05;;;;;;;8.77;3.08;;;;;;;;;;4993585;28;20042;-40
2023/10/20 09:58:36;;;;;;;5.75;2.63;;;;;;;;;;4993453;28;20038;-41
2023/10/20 10:01:03;;;;;;;9.40;3.10;;;;;;;;;;4993363;28;20400;-41
2023/10/20 10:03:40;;;;;;;7.50;2.60;;;;;;;;;;4993328;28;20030;-41
2023/10/20 10:06:11;;;;;;;6.90;2.63;;;;;;;;;;4993323;28;20026;-41
2023/10/20 10:08:39;;;;;;;4.85;2.45;;;;;;;;;;4993294;28;20426;-40
2023/10/20 10:11:22;;;;;;;7.20;2.70;;;;;;;;;;4993003;28;20030;-41
2023/10/20 10:14:09;;;;;;;6.57;2.45;;;;;;;;;;4993223;28;20054;-40
2023/10/20 10:16:49;;;;;;;5.40;2.65;;;;;;;;;;4993187;28;20065;-40
2023/10/20 10:19:18;;;;;;;5.82;2.60;;;;;;;;;;4993047;28;20058;-42
2023/10/20 10:21:49;;;;;;;8.20;2.95;;;;;;;;;;4992925;28;20047;-40
2023/10/20 10:24:20;;;;;;;8.13;3.00;;;;;;;;;;4992965;28;20026;-42
2023/10/20 10:27:00;;;;;;;8.27;2.80;;;;;;;;;;4992926;28;20030;-40
2023/10/20 10:29:45;;;;;;;5.53;2.45;;;;;;;;;;4992869;28;20038;-41
2023/10/20 10:32:17;;;;;;;4.85;2.17;;;;;;;;;;4992741;28;20439;-42
2023/10/20 10:34:54;;;;;;;5.00;2.40;;;;;;;;;;4992031;28;20042;-40
2023/10/20 10:37:47;;;;;;;4.57;2.20;;;;;;;;;;5003396;28;20073;-40
2023/10/20 10:40:16;;;;;;;6.38;2.30;;;;;;;;;;5024021;28;20060;-41
2023/10/20 10:42:44;;;;;;;6.15;2.63;;;;;;;;;;5007705;28;20026;-42
2023/10/20 10:45:22;;;;;;;6.57;2.75;;;;;;;;;;4998576;28;20575;-41
2023/10/20 10:48:04;;;;;;;5.10;2.50;;;;;;;;;;5007713;28;20048;-41
2023/10/20 10:50:32;;;;;;;6.80;2.55;;;;;;;;;;5011702;28;20030;-40
2023/10/20 10:52:59;;;;;;;7.07;2.50;;;;;;;;;;5011901;28;20042;-41
2023/10/20 10:55:27;;;;;;;12.98;2.38;;;;;;;;;;5010618;28;20096;-44
2023/10/20 10:57:54;;;;;;;6.32;2.30;;;;;;;;;;5012028;28;20030;-40
2023/10/20 11:00:21;;;;;;;4.72;2.20;;;;;;;;;;5011576;28;20392;-45
2023/10/20 11:02:49;;;;;;;6.15;2.40;;;;;;;;;;5011912;28;20018;-42
2023/10/20 11:05:17;;;;;;;8.80;2.28;;;;;;;;;;5011722;28;20041;-42
2023/10/20 11:08:01;;;;;;;8.40;2.47;;;;;;;;;;5008232;28;20030;-41
2023/10/20 11:10:28;;;;;;;5.00;2.33;;;;;;;;;;4999240;28;20121;-41
2023/10/20 11:13:20;;;;;;;13.40;2.67;;;;;;;;;;4994765;28;20392;-39
2023/10/20 11:16:05;;;;;;;30.58;3.45;;;;;;;;;;5009174;28;20156;-42
2023/10/20 11:18:35;;;;;;;122.88;7.75;;;;;;;;;;5004404;28;20104;-34
2023/10/20 11:21:02;;;;;;;131.27;7.57;;;;;;;;;;4995991;28;20049;-43
2023/10/20 11:23:30;;;;;;;56.38;4.75;;;;;;;;;;5008828;28;20443;-38
2023/10/20 11:25:57;;;;;;;44.97;3.90;;;;;;;;;;5010726;28;20033;-39
2023/10/20 11:28:24;;;;;;;266.98;24.75;;;;;;;;;;5007957;28;20044;-37
2023/10/20 11:30:52;;;;;;;181.05;17.50;;;;;;;;;;5009736;28;20034;-37
2023/10/20 11:33:19;;;;;;;123.78;13.07;;;;;;;;;;5000634;28;20109;-37
2023/10/20 11:35:46;;;;;;;81.55;8.60;;;;;;;;;;4999656;28;20030;-37
2023/10/20 11:38:16;;;;;;;55.00;6.50;;;;;;;;;;5010856;28;20191;-36
2023/10/20 11:40:43;;;;;;;37.85;5.63;;;;;;;;;;5011058;28;20073;-36
2023/10/20 11:43:11;;;;;;;42.33;5.13;;;;;;;;;;5009983;28;20054;-38
2023/10/20 11:45:38;;;;;;;34.58;5.57;;;;;;;;;;5007777;28;20050;-39
2023/10/20 11:48:05;;;;;;;25.15;4.40;;;;;;;;;;5000484;28;20042;-39
2023/10/20 11:50:32;;;;;;;28.83;4.32;;;;;;;;;;5008108;28;20484;-37
2023/10/20 11:52:59;;;;;;;27.95;4.57;;;;;;;;;;5022732;28;20499;-37
2023/10/20 11:55:26;;;;;;;32.03;4.13;;;;;;;;;;5013841;28;20448;-38
2023/10/20 11:57:53;;;;;;;11.90;2.97;;;;;;;;;;5011552;28;20062;-36
2023/10/20 12:00:21;;;;;;;19.65;3.38;;;;;;;;;;5001482;28;20042;-38
2023/10/20 12:02:49;;;;;;;26.65;3.50;;;;;;;;;;5004930;28;20072;-37
2023/10/20 12:05:16;;;;;;;26.52;4.03;;;;;;;;;;4997775;28;20045;-45
2023/10/20 12:07:43;;;;;;;23.50;3.78;;;;;;;;;;4996613;28;20048;-40
2023/10/20 12:10:10;;;;;;;23.10;3.70;;;;;;;;;;4993719;28;20030;-39
2023/10/20 12:12:38;;;;;;;23.70;4.13;;;;;;;;;;4994596;28;20046;-39
2023/10/20 12:15:07;;;;;;;15.07;3.55;;;;;;;;;;4994149;28;20113;-40
2023/10/20 12:17:35;;;;;;;19.95;3.58;;;;;;;;;;4993993;28;20477;-38
2023/10/20 12:20:02;;;;;;;20.98;3.75;;;;;;;;;;4994863;28;20045;-38
2023/10/20 12:22:28;;;;;;;22.73;4.30;;;;;;;;;;4994979;28;20037;-39
2023/10/20 12:24:55;;;;;;;29.58;5.13;;;;;;;;;;5004405;28;20065;-37
2023/10/20 12:27:23;;;;;;;27.95;4.82;;;;;;;;;;5003507;28;20100;-40
2023/10/20 12:29:50;;;;;;;29.92;4.18;;;;;;;;;;5003413;28;20432;-37
2023/10/20 12:32:17;;;;;;;21.48;3.40;;;;;;;;;;5003239;28;20038;-38
2023/10/20 12:34:44;;;;;;;27.65;3.97;;;;;;;;;;5004889;28;20033;-44
2023/10/20 12:37:11;;;;;;;19.80;3.38;;;;;;;;;;5002109;28;20030;-39
2023/10/20 12:39:41;;;;;;;23.90;3.65;;;;;;;;;;5003225;28;20033;-40
2023/10/20 12:42:08;;;;;;;17.80;4.00;;;;;;;;;;4999438;28;20031;-39
2023/10/20 12:44:35;;;;;;;18.65;3.13;;;;;;;;;;4993016;28;20085;-37
2023/10/20 12:47:02;;;;;;;16.98;3.70;;;;;;;;;;4993405;28;20030;-40
2023/10/20 12:49:31;;;;;;;26.27;4.20;;;;;;;;;;5023549;28;20034;-39
2023/10/20 12:51:58;;;;;;;27.80;4.30;;;;;;;;;;5021690;28;20125;-38
2023/10/20 12:54:25;;;;;;;27.77;3.80;;;;;;;;;;4998950;28;20046;-36
2023/10/20 12:56:52;;;;;;;20.42;3.70;;;;;;;;;;5013046;28;20026;-38
2023/10/20 12:59:19;;;;;;;25.52;3.70;;;;;;;;;;5012000;28;20026;-38
2023/10/20 13:01:46;;;;;;;25.10;3.42;;;;;;;;;;5013845;28;20511;-38
2023/10/20 13:04:13;;;;;;;20.67;4.13;;;;;;;;;;5013995;28;20026;-38
2023/10/20 13:06:40;;;;;;;20.73;3.35;;;;;;;;;;5013021;28;20119;-37
2023/10/20 13:09:07;;;;;;;13.15;3.05;;;;;;;;;;5011028;28;20029;-38
2023/10/20 13:11:34;;;;;;;17.80;3.72;;;;;;;;;;5011301;28;20048;-38
2023/10/20 13:14:01;;;;;;;15.75;3.65;;;;;;;;;;5012074;28;20040;-38
2023/10/20 13:16:29;;;;;;;20.77;3.85;;;;;;;;;;5012112;28;20057;-40
2023/10/20 13:18:56;;;;;;;24.40;3.90;;;;;;;;;;5011549;28;20029;-40
2023/10/20 13:21:24;;;;;;;20.30;3.08;;;;;;;;;;5010826;28;20036;-39
2023/10/20 13:23:53;;;;;;;21.23;4.10;;;;;;;;;;5011760;28;20038;-40
2023/10/20 13:26:20;;;;;;;19.70;3.53;;;;;;;;;;5011460;28;20057;-40
2023/10/20 13:28:47;;;;;;;20.35;3.85;;;;;;;;;;5013305;28;20024;-41
2023/10/20 13:31:21;;;;;;;18.08;3.22;;;;;;;;;;5013143;28;20045;-40
2023/10/20 13:33:48;;;;;;;19.55;2.92;;;;;;;;;;5003511;28;20037;-40
2023/10/20 13:36:16;;;;;;;27.42;3.40;;;;;;;;;;4998328;28;20053;-38
2023/10/20 13:38:43;;;;;;;25.83;3.67;;;;;;;;;;5003500;28;20376;-38
2023/10/20 13:41:11;;;;;;;16.40;3.15;;;;;;;;;;5002126;28;20084;-37
2023/10/20 13:43:39;;;;;;;19.75;3.83;;;;;;;;;;5002102;28;20830;-39
2023/10/20 13:46:06;;;;;;;12.90;2.90;;;;;;;;;;5003854;28;20531;-41
2023/10/20 13:48:33;;;;;;;28.77;4.20;;;;;;;;;;5002651;28;20034;-39
2023/10/20 13:51:00;;;;;;;18.45;3.33;;;;;;;;;;5001949;28;20580;-41
2023/10/20 13:53:27;;;;;;;20.60;3.05;;;;;;;;;;5003733;28;20036;-39
2023/10/20 13:55:54;;;;;;;17.30;3.00;;;;;;;;;;5002643;28;20022;-41
2023/10/20 13:58:21;;;;;;;18.13;3.20;;;;;;;;;;5001781;28;20050;-40
2023/10/20 14:00:50;;;;;;;26.60;3.78;;;;;;;;;;5003608;28;20463;-41
2023/10/20 14:03:17;;;;;;;61.20;6.63;;;;;;;;;;5005740;28;20030;-42
2023/10/20 14:05:54;;;;;;;25.45;4.07;;;;;;;;;;4995834;28;20038;-41
2023/10/20 14:08:22;;;;;;;22.02;3.58;;;;;;;;;;4993102;28;20508;-42
2023/10/20 14:10:49;;;;;;;20.92;3.72;;;;;;;;;;4992814;28;20074;-40
2023/10/20 14:13:16;;;;;;;17.10;3.63;;;;;;;;;;4993010;28;20038;-42
2023/10/20 14:15:44;;;;;;;23.35;3.60;;;;;;;;;;4992932;28;20038;-40
2023/10/20 14:18:11;;;;;;;18.75;3.58;;;;;;;;;;4991474;28;20041;-41
2023/10/20 14:20:39;;;;;;;25.73;3.72;;;;;;;;;;5000247;28;20026;-39
2023/10/20 14:23:06;;;;;;;22.27;3.47;;;;;;;;;;4998036;28;20030;-40
2023/10/20 14:25:33;;;;;;;12.77;2.88;;;;;;;;;;4992455;28;20034;-40
2023/10/20 14:28:00;;;;;;;20.90;3.33;;;;;;;;;;4996793;28;20062;-41
2023/10/20 14:30:27;;;;;;;20.48;3.47;;;;;;;;;;4995344;28;20034;-41
2023/10/20 14:32:54;;;;;;;21.42;3.10;;;;;;;;;;4991465;28;20456;-41
2023/10/20 14:35:22;;;;;;;18.73;3.53;;;;;;;;;;4992739;28;20030;-41
2023/10/20 14:37:49;;;;;;;18.08;2.72;;;;;;;;;;4990406;28;20037;-41
2023/10/20 14:40:16;;;;;;;20.77;3.40;;;;;;;;;;4996296;28;20022;-41
2023/10/20 14:42:43;;;;;;;24.23;3.25;;;;;;;;;;5010388;28;20026;-41
2023/10/20 14:45:11;;;;;;;12.27;3.00;;;;;;;;;;5011115;28;20539;-39
2023/10/20 14:47:38;;;;;;;18.17;2.97;;;;;;;;;;5012115;28;20076;-39
2023/10/20 14:50:06;;;;;;;16.80;3.33;;;;;;;;;;5008124;28;20033;-41
2023/10/20 14:52:33;;;;;;;22.08;4.15;;;;;;;;;;5009257;28;20041;-39
2023/10/20 14:55:00;;;;;;;20.60;3.92;;;;;;;;;;5004069;28;20049;-41
2023/10/20 14:57:27;;;;;;;19.73;4.03;;;;;;;;;;4991452;28;20042;-40
2023/10/20 14:59:55;;;;;;;21.83;3.80;;;;;;;;;;4991437;28;20244;-44
2023/10/20 15:02:22;;;;;;;23.45;3.30;;;;;;;;;;4989731;28;20133;-54
2023/10/20 15:04:49;;;;;;;16.05;3.00;;;;;;;;;;5006757;28;20099;-42
2023/10/20 15:07:16;;;;;;;15.60;3.08;;;;;;;;;;5000685;28;20027;-39
2023/10/20 15:09:44;;;;;;;20.08;3.05;;;;;;;;;;5000826;28;20030;-38
2023/10/20 15:12:11;;;;;;;18.00;3.22;;;;;;;;;;4991233;28;20405;-37
2023/10/20 15:14:38;;;;;;;15.75;2.90;;;;;;;;;;4993905;28;20039;-41